sensor_id;sensor_type;location;lat;lon;timestamp;pressure;altitude;pressure_sealevel;temperature;humidity
38452;BME280;24231;52.514;13.438;2023-03-04T00:03:03;101364.01;;;3.26;68.68
38452;BME280;24231;52.514;13.438;2023-03-04T00:05:30;101363.65;;;2.76;70.00
38452;BME280;24231;52.514;13.438;2023-03-04T00:07:56;101358.13;;;2.58;70.65
38452;BME280;24231;52.514;13.438;2023-03-04T00:10:24;101350.28;;;2.82;69.35
38452;BME280;24231;52.514;13.438;2023-03-04T00:12:51;101343.37;;;2.89;70.64
38452;BME280;24231;52.514;13.438;2023-03-04T00:15:19;101345.72;;;2.77;71.24
38452;BME280;24231;52.514;13.438;2023-03-04T00:17:46;101347.17;;;3.00;71.00
38452;BME280;24231;52.514;13.438;2023-03-04T00:20:13;101337.12;;;3.83;66.86
38452;BME280;24231;52.514;13.438;2023-03-04T00:22:40;101341.74;;;3.55;67.71
38452;BME280;24231;52.514;13.438;2023-03-04T00:25:07;101339.78;;;3.39;68.68
38452;BME280;24231;52.514;13.438;2023-03-04T00:27:34;101337.47;;;3.16;69.81
38452;BME280;24231;52.514;13.438;2023-03-04T00:30:02;101341.37;;;2.96;70.26
38452;BME280;24231;52.514;13.438;2023-03-04T00:32:29;101334.56;;;3.18;70.13
38452;BME280;24231;52.514;13.438;2023-03-04T00:34:56;101333.39;;;3.18;69.83
38452;BME280;24231;52.514;13.438;2023-03-04T00:37:23;101324.74;;;2.81;71.08
38452;BME280;24231;52.514;13.438;2023-03-04T00:39:51;101321.91;;;2.30;73.13
38452;BME280;24231;52.514;13.438;2023-03-04T00:42:18;101327.99;;;2.62;72.24
38452;BME280;24231;52.514;13.438;2023-03-04T00:44:45;101325.59;;;2.94;71.30
38452;BME280;24231;52.514;13.438;2023-03-04T00:47:13;101322.31;;;2.87;70.45
38452;BME280;24231;52.514;13.438;2023-03-04T00:49:40;101316.95;;;2.77;70.72
38452;BME280;24231;52.514;13.438;2023-03-04T00:52:07;101321.81;;;2.43;72.87
38452;BME280;24231;52.514;13.438;2023-03-04T00:54:34;101319.54;;;3.25;69.41
38452;BME280;24231;52.514;13.438;2023-03-04T00:57:01;101312.95;;;3.27;69.70
38452;BME280;24231;52.514;13.438;2023-03-04T00:59:28;101307.02;;;3.39;68.96
38452;BME280;24231;52.514;13.438;2023-03-04T01:01:55;101309.13;;;3.21;69.79
38452;BME280;24231;52.514;13.438;2023-03-04T01:04:23;101310.53;;;3.20;69.87
38452;BME280;24231;52.514;13.438;2023-03-04T01:06:50;101304.56;;;2.42;72.08
38452;BME280;24231;52.514;13.438;2023-03-04T01:09:17;101306.38;;;3.09;70.39
38452;BME280;24231;52.514;13.438;2023-03-04T01:11:45;101306.82;;;2.84;71.11
38452;BME280;24231;52.514;13.438;2023-03-04T01:14:12;101302.83;;;2.81;70.65
38452;BME280;24231;52.514;13.438;2023-03-04T01:16:39;101294.54;;;2.40;72.53
38452;BME280;24231;52.514;13.438;2023-03-04T01:19:07;101292.31;;;2.59;72.12
38452;BME280;24231;52.514;13.438;2023-03-04T01:21:34;101284.30;;;2.31;73.69
38452;BME280;24231;52.514;13.438;2023-03-04T01:24:01;101283.49;;;2.77;71.75
38452;BME280;24231;52.514;13.438;2023-03-04T01:26:28;101277.33;;;3.64;68.31
38452;BME280;24231;52.514;13.438;2023-03-04T01:28:55;101280.70;;;3.54;68.23
38452;BME280;24231;52.514;13.438;2023-03-04T01:31:23;101280.17;;;2.70;71.35
38452;BME280;24231;52.514;13.438;2023-03-04T01:33:50;101277.11;;;2.51;72.94
38452;BME280;24231;52.514;13.438;2023-03-04T01:36:17;101270.33;;;2.86;71.70
38452;BME280;24231;52.514;13.438;2023-03-04T01:38:45;101275.24;;;2.53;71.68
38452;BME280;24231;52.514;13.438;2023-03-04T01:41:12;101279.05;;;3.07;70.55
38452;BME280;24231;52.514;13.438;2023-03-04T01:43:40;101276.01;;;2.96;70.85
38452;BME280;24231;52.514;13.438;2023-03-04T01:46:09;101279.04;;;3.07;70.11
38452;BME280;24231;52.514;13.438;2023-03-04T01:48:38;101269.99;;;3.59;68.63
38452;BME280;24231;52.514;13.438;2023-03-04T01:51:09;101258.27;;;3.55;68.05
38452;BME280;24231;52.514;13.438;2023-03-04T01:53:38;101255.97;;;3.68;67.32
38452;BME280;24231;52.514;13.438;2023-03-04T01:56:14;101261.80;;;2.69;72.23
38452;BME280;24231;52.514;13.438;2023-03-04T01:58:41;101259.65;;;2.83;71.92
38452;BME280;24231;52.514;13.438;2023-03-04T02:01:10;101254.99;;;3.15;71.16
38452;BME280;24231;52.514;13.438;2023-03-04T02:03:38;101252.16;;;2.80;71.14
38452;BME280;24231;52.514;13.438;2023-03-04T02:06:06;101248.97;;;2.67;72.07
38452;BME280;24231;52.514;13.438;2023-03-04T02:08:34;101252.87;;;3.21;71.03
38452;BME280;24231;52.514;13.438;2023-03-04T02:11:02;101246.01;;;3.54;70.09
38452;BME280;24231;52.514;13.438;2023-03-04T02:13:29;101240.32;;;3.79;67.83
38452;BME280;24231;52.514;13.438;2023-03-04T02:15:57;101238.02;;;4.17;66.00
38452;BME280;24231;52.514;13.438;2023-03-04T02:18:24;101237.69;;;3.68;68.08
38452;BME280;24231;52.514;13.438;2023-03-04T02:20:58;101234.10;;;3.85;68.36
38452;BME280;24231;52.514;13.438;2023-03-04T02:23:32;101231.96;;;4.78;64.94
38452;BME280;24231;52.514;13.438;2023-03-04T02:26:12;101229.64;;;4.23;65.65
38452;BME280;24231;52.514;13.438;2023-03-04T02:28:39;101223.85;;;3.65;68.22
38452;BME280;24231;52.514;13.438;2023-03-04T02:31:13;101227.51;;;3.31;69.76
38452;BME280;24231;52.514;13.438;2023-03-04T02:33:46;101225.12;;;3.26;71.73
38452;BME280;24231;52.514;13.438;2023-03-04T02:36:13;101211.42;;;3.44;69.96
38452;BME280;24231;52.514;13.438;2023-03-04T02:38:41;101207.64;;;3.52;70.17
38452;BME280;24231;52.514;13.438;2023-03-04T02:41:12;101204.35;;;3.85;69.87
38452;BME280;24231;52.514;13.438;2023-03-04T02:43:40;101198.86;;;4.08;68.35
38452;BME280;24231;52.514;13.438;2023-03-04T02:46:09;101199.18;;;3.75;69.24
38452;BME280;24231;52.514;13.438;2023-03-04T02:48:38;101195.02;;;4.53;66.28
38452;BME280;24231;52.514;13.438;2023-03-04T02:51:05;101195.35;;;4.59;66.27
38452;BME280;24231;52.514;13.438;2023-03-04T02:53:32;101192.90;;;4.49;67.14
38452;BME280;24231;52.514;13.438;2023-03-04T02:55:59;101190.99;;;4.32;67.89
38452;BME280;24231;52.514;13.438;2023-03-04T02:58:27;101195.04;;;3.82;70.18
38452;BME280;24231;52.514;13.438;2023-03-04T03:00:54;101197.52;;;4.08;68.58
38452;BME280;24231;52.514;13.438;2023-03-04T03:03:21;101192.88;;;3.56;70.98
38452;BME280;24231;52.514;13.438;2023-03-04T03:05:48;101190.10;;;3.97;69.11
38452;BME280;24231;52.514;13.438;2023-03-04T03:08:16;101191.31;;;4.03;69.41
38452;BME280;24231;52.514;13.438;2023-03-04T03:10:43;101192.48;;;4.32;67.72
38452;BME280;24231;52.514;13.438;2023-03-04T03:13:10;101192.72;;;3.86;69.50
38452;BME280;24231;52.514;13.438;2023-03-04T03:15:36;101196.06;;;3.68;70.00
38452;BME280;24231;52.514;13.438;2023-03-04T03:18:03;101188.36;;;4.13;68.27
38452;BME280;24231;52.514;13.438;2023-03-04T03:20:30;101184.74;;;4.37;68.26
38452;BME280;24231;52.514;13.438;2023-03-04T03:22:57;101183.16;;;4.53;67.90
38452;BME280;24231;52.514;13.438;2023-03-04T03:25:24;101186.98;;;4.02;69.20
38452;BME280;24231;52.514;13.438;2023-03-04T03:27:52;101185.38;;;4.45;67.82
38452;BME280;24231;52.514;13.438;2023-03-04T03:30:20;101182.80;;;5.03;66.67
38452;BME280;24231;52.514;13.438;2023-03-04T03:32:47;101178.62;;;5.00;66.39
38452;BME280;24231;52.514;13.438;2023-03-04T03:35:14;101181.64;;;3.51;71.61
38452;BME280;24231;52.514;13.438;2023-03-04T03:37:41;101172.35;;;4.98;67.18
38452;BME280;24231;52.514;13.438;2023-03-04T03:40:10;101173.25;;;4.14;69.08
38452;BME280;24231;52.514;13.438;2023-03-04T03:42:37;101165.70;;;4.39;69.08
38452;BME280;24231;52.514;13.438;2023-03-04T03:45:06;101162.42;;;4.88;66.97
38452;BME280;24231;52.514;13.438;2023-03-04T03:47:33;101158.48;;;5.25;66.22
38452;BME280;24231;52.514;13.438;2023-03-04T03:50:00;101157.60;;;5.33;65.75
38452;BME280;24231;52.514;13.438;2023-03-04T03:52:28;101160.69;;;5.22;64.29
38452;BME280;24231;52.514;13.438;2023-03-04T03:54:55;101155.71;;;4.88;66.05
38452;BME280;24231;52.514;13.438;2023-03-04T03:57:22;101153.94;;;5.65;64.12
38452;BME280;24231;52.514;13.438;2023-03-04T03:59:49;101153.32;;;5.79;63.08
38452;BME280;24231;52.514;13.438;2023-03-04T04:02:16;101153.69;;;5.28;65.36
38452;BME280;24231;52.514;13.438;2023-03-04T04:04:43;101152.86;;;5.72;63.45
38452;BME280;24231;52.514;13.438;2023-03-04T04:07:11;101148.42;;;4.92;66.08
38452;BME280;24231;52.514;13.438;2023-03-04T04:09:38;101151.02;;;4.84;68.60
38452;BME280;24231;52.514;13.438;2023-03-04T04:12:06;101146.70;;;4.65;68.23
38452;BME280;24231;52.514;13.438;2023-03-04T04:14:33;101156.01;;;4.21;68.36
38452;BME280;24231;52.514;13.438;2023-03-04T04:17:01;101144.96;;;4.93;67.34
38452;BME280;24231;52.514;13.438;2023-03-04T04:19:28;101142.08;;;5.09;67.06
38452;BME280;24231;52.514;13.438;2023-03-04T04:21:55;101147.39;;;4.02;70.75
38452;BME280;24231;52.514;13.438;2023-03-04T04:24:23;101138.92;;;5.08;68.23
38452;BME280;24231;52.514;13.438;2023-03-04T04:26:51;101137.23;;;4.67;68.33
38452;BME280;24231;52.514;13.438;2023-03-04T04:29:18;101134.82;;;4.16;71.06
38452;BME280;24231;52.514;13.438;2023-03-04T04:31:45;101137.62;;;4.23;71.62
38452;BME280;24231;52.514;13.438;2023-03-04T04:34:12;101137.38;;;4.63;69.33
38452;BME280;24231;52.514;13.438;2023-03-04T04:36:39;101140.93;;;3.50;73.41
38452;BME280;24231;52.514;13.438;2023-03-04T04:39:07;101130.69;;;4.84;67.77
38452;BME280;24231;52.514;13.438;2023-03-04T04:41:37;101129.61;;;5.36;66.33
38452;BME280;24231;52.514;13.438;2023-03-04T04:44:04;101134.86;;;5.40;65.22
38452;BME280;24231;52.514;13.438;2023-03-04T04:46:32;101122.24;;;5.06;67.27
38452;BME280;24231;52.514;13.438;2023-03-04T04:49:00;101131.82;;;5.52;65.64
38452;BME280;24231;52.514;13.438;2023-03-04T04:51:27;101130.75;;;5.62;64.70
38452;BME280;24231;52.514;13.438;2023-03-04T04:53:55;101128.13;;;4.57;68.95
38452;BME280;24231;52.514;13.438;2023-03-04T04:56:23;101126.08;;;4.59;68.68
38452;BME280;24231;52.514;13.438;2023-03-04T04:58:52;101126.57;;;6.25;62.81
38452;BME280;24231;52.514;13.438;2023-03-04T05:01:19;101117.64;;;6.37;61.34
38452;BME280;24231;52.514;13.438;2023-03-04T05:03:46;101121.07;;;5.80;63.84
38452;BME280;24231;52.514;13.438;2023-03-04T05:06:14;101124.46;;;6.02;62.84
38452;BME280;24231;52.514;13.438;2023-03-04T05:08:41;101120.32;;;6.50;61.81
38452;BME280;24231;52.514;13.438;2023-03-04T05:11:08;101116.34;;;5.37;65.26
38452;BME280;24231;52.514;13.438;2023-03-04T05:13:36;101120.77;;;5.30;65.84
38452;BME280;24231;52.514;13.438;2023-03-04T05:16:04;101119.09;;;5.42;65.81
38452;BME280;24231;52.514;13.438;2023-03-04T05:18:31;101122.94;;;5.55;64.23
38452;BME280;24231;52.514;13.438;2023-03-04T05:21:00;101121.01;;;5.88;63.08
38452;BME280;24231;52.514;13.438;2023-03-04T05:23:29;101120.67;;;5.90;63.83
38452;BME280;24231;52.514;13.438;2023-03-04T05:25:56;101114.83;;;5.13;67.28
38452;BME280;24231;52.514;13.438;2023-03-04T05:28:23;101115.70;;;5.17;67.69
38452;BME280;24231;52.514;13.438;2023-03-04T05:30:51;101110.46;;;5.01;67.64
38452;BME280;24231;52.514;13.438;2023-03-04T05:33:19;101112.49;;;5.62;65.08
38452;BME280;24231;52.514;13.438;2023-03-04T05:35:47;101112.02;;;5.57;64.53
38452;BME280;24231;52.514;13.438;2023-03-04T05:38:17;101112.05;;;5.11;67.75
38452;BME280;24231;52.514;13.438;2023-03-04T05:40:45;101109.00;;;5.38;67.08
38452;BME280;24231;52.514;13.438;2023-03-04T05:43:13;101109.81;;;5.74;64.91
38452;BME280;24231;52.514;13.438;2023-03-04T05:45:41;101112.03;;;6.18;64.35
38452;BME280;24231;52.514;13.438;2023-03-04T05:48:09;101110.18;;;5.07;66.93
38452;BME280;24231;52.514;13.438;2023-03-04T05:50:36;101107.74;;;5.64;65.37
38452;BME280;24231;52.514;13.438;2023-03-04T05:53:03;101107.95;;;5.69;65.62
38452;BME280;24231;52.514;13.438;2023-03-04T05:55:30;101107.73;;;4.71;68.68
38452;BME280;24231;52.514;13.438;2023-03-04T05:57:57;101106.63;;;6.03;65.40
38452;BME280;24231;52.514;13.438;2023-03-04T06:00:25;101109.21;;;5.81;65.72
38452;BME280;24231;52.514;13.438;2023-03-04T06:02:52;101110.81;;;5.88;65.01
38452;BME280;24231;52.514;13.438;2023-03-04T06:05:20;101108.97;;;5.15;68.08
38452;BME280;24231;52.514;13.438;2023-03-04T06:07:47;101113.42;;;4.34;73.08
38452;BME280;24231;52.514;13.438;2023-03-04T06:10:16;101108.02;;;5.85;67.38
38452;BME280;24231;52.514;13.438;2023-03-04T06:12:43;101109.41;;;5.05;68.94
38452;BME280;24231;52.514;13.438;2023-03-04T06:15:11;101110.20;;;5.39;66.09
38452;BME280;24231;52.514;13.438;2023-03-04T06:17:41;101112.83;;;5.94;64.87
38452;BME280;24231;52.514;13.438;2023-03-04T06:20:10;101110.01;;;6.55;63.97
38452;BME280;24231;52.514;13.438;2023-03-04T06:22:38;101115.57;;;5.51;65.74
38452;BME280;24231;52.514;13.438;2023-03-04T06:25:06;101113.61;;;6.35;64.28
38452;BME280;24231;52.514;13.438;2023-03-04T06:27:33;101112.09;;;6.83;63.61
38452;BME280;24231;52.514;13.438;2023-03-04T06:30:01;101108.34;;;6.76;62.64
38452;BME280;24231;52.514;13.438;2023-03-04T06:32:29;101105.07;;;7.02;62.61
38452;BME280;24231;52.514;13.438;2023-03-04T06:34:56;101110.62;;;5.14;69.92
38452;BME280;24231;52.514;13.438;2023-03-04T06:37:23;101115.24;;;6.10;66.88
38452;BME280;24231;52.514;13.438;2023-03-04T06:39:50;101115.84;;;6.03;67.72
38452;BME280;24231;52.514;13.438;2023-03-04T06:42:18;101119.80;;;6.01;68.04
38452;BME280;24231;52.514;13.438;2023-03-04T06:44:45;101120.95;;;6.17;67.49
38452;BME280;24231;52.514;13.438;2023-03-04T06:47:14;101115.98;;;4.81;71.83
38452;BME280;24231;52.514;13.438;2023-03-04T06:49:42;101121.41;;;5.50;70.18
38452;BME280;24231;52.514;13.438;2023-03-04T06:52:09;101118.66;;;5.93;69.93
38452;BME280;24231;52.514;13.438;2023-03-04T06:54:36;101119.01;;;6.07;68.87
38452;BME280;24231;52.514;13.438;2023-03-04T06:57:04;101120.58;;;5.77;69.96
38452;BME280;24231;52.514;13.438;2023-03-04T06:59:32;101117.89;;;6.15;69.25
38452;BME280;24231;52.514;13.438;2023-03-04T07:01:59;101114.85;;;4.44;74.85
38452;BME280;24231;52.514;13.438;2023-03-04T07:04:26;101118.96;;;5.62;71.63
38452;BME280;24231;52.514;13.438;2023-03-04T07:06:54;101121.23;;;5.63;72.15
38452;BME280;24231;52.514;13.438;2023-03-04T07:09:21;101125.64;;;5.65;71.54
38452;BME280;24231;52.514;13.438;2023-03-04T07:11:49;101124.04;;;6.75;67.82
38452;BME280;24231;52.514;13.438;2023-03-04T07:14:16;101124.69;;;5.70;72.00
38452;BME280;24231;52.514;13.438;2023-03-04T07:16:44;101121.71;;;5.28;72.96
38452;BME280;24231;52.514;13.438;2023-03-04T07:19:11;101124.14;;;5.44;75.07
38452;BME280;24231;52.514;13.438;2023-03-04T07:21:39;101121.71;;;5.37;74.17
38452;BME280;24231;52.514;13.438;2023-03-04T07:24:06;101127.37;;;6.16;71.40
38452;BME280;24231;52.514;13.438;2023-03-04T07:26:34;101130.70;;;6.55;70.17
38452;BME280;24231;52.514;13.438;2023-03-04T07:29:01;101127.96;;;6.09;71.30
38452;BME280;24231;52.514;13.438;2023-03-04T07:31:30;101124.40;;;4.91;75.25
38452;BME280;24231;52.514;13.438;2023-03-04T07:33:59;101128.61;;;5.66;73.29
38452;BME280;24231;52.514;13.438;2023-03-04T07:36:27;101127.15;;;4.59;77.07
38452;BME280;24231;52.514;13.438;2023-03-04T07:38:54;101125.30;;;5.01;76.59
38452;BME280;24231;52.514;13.438;2023-03-04T07:41:23;101124.33;;;6.35;71.00
38452;BME280;24231;52.514;13.438;2023-03-04T07:43:51;101118.84;;;7.18;67.47
38452;BME280;24231;52.514;13.438;2023-03-04T07:46:18;101123.91;;;6.01;70.74
38452;BME280;24231;52.514;13.438;2023-03-04T07:48:46;101126.44;;;6.21;71.12
38452;BME280;24231;52.514;13.438;2023-03-04T07:51:15;101127.89;;;5.14;76.29
38452;BME280;24231;52.514;13.438;2023-03-04T07:53:44;101130.62;;;5.07;78.30
38452;BME280;24231;52.514;13.438;2023-03-04T07:56:13;101127.31;;;5.48;74.65
38452;BME280;24231;52.514;13.438;2023-03-04T07:58:41;101125.21;;;5.77;76.17
38452;BME280;24231;52.514;13.438;2023-03-04T08:01:10;101120.19;;;5.47;77.46
38452;BME280;24231;52.514;13.438;2023-03-04T08:03:37;101116.20;;;6.05;75.30
38452;BME280;24231;52.514;13.438;2023-03-04T08:06:06;101117.12;;;5.81;73.62
38452;BME280;24231;52.514;13.438;2023-03-04T08:08:35;101116.43;;;5.40;76.82
38452;BME280;24231;52.514;13.438;2023-03-04T08:11:03;101118.89;;;5.27;76.70
38452;BME280;24231;52.514;13.438;2023-03-04T08:13:31;101114.17;;;5.06;77.03
38452;BME280;24231;52.514;13.438;2023-03-04T08:15:58;101117.57;;;5.31;77.08
38452;BME280;24231;52.514;13.438;2023-03-04T08:18:26;101116.46;;;5.75;74.37
38452;BME280;24231;52.514;13.438;2023-03-04T08:20:53;101109.57;;;5.47;76.24
38452;BME280;24231;52.514;13.438;2023-03-04T08:23:21;101108.86;;;5.33;76.58
38452;BME280;24231;52.514;13.438;2023-03-04T08:25:48;101101.70;;;4.78;77.46
38452;BME280;24231;52.514;13.438;2023-03-04T08:28:16;101112.29;;;5.55;75.31
38452;BME280;24231;52.514;13.438;2023-03-04T08:30:43;101105.03;;;4.83;77.26
38452;BME280;24231;52.514;13.438;2023-03-04T08:33:10;101107.98;;;4.40;79.96
38452;BME280;24231;52.514;13.438;2023-03-04T08:35:39;101101.83;;;4.86;77.90
38452;BME280;24231;52.514;13.438;2023-03-04T08:38:06;101104.11;;;5.46;74.08
38452;BME280;24231;52.514;13.438;2023-03-04T08:40:33;101097.76;;;5.95;71.84
38452;BME280;24231;52.514;13.438;2023-03-04T08:43:01;101105.68;;;5.63;72.47
38452;BME280;24231;52.514;13.438;2023-03-04T08:45:28;101101.12;;;5.19;72.34
38452;BME280;24231;52.514;13.438;2023-03-04T08:47:55;101094.64;;;5.68;70.04
38452;BME280;24231;52.514;13.438;2023-03-04T08:50:23;101092.66;;;5.78;70.10
38452;BME280;24231;52.514;13.438;2023-03-04T08:52:51;101090.53;;;5.36;71.98
38452;BME280;24231;52.514;13.438;2023-03-04T08:55:18;101086.12;;;6.00;68.28
38452;BME280;24231;52.514;13.438;2023-03-04T08:57:45;101085.89;;;6.40;66.02
38452;BME280;24231;52.514;13.438;2023-03-04T09:00:13;101085.90;;;6.41;65.10
38452;BME280;24231;52.514;13.438;2023-03-04T09:02:41;101081.52;;;6.40;65.34
38452;BME280;24231;52.514;13.438;2023-03-04T09:05:08;101082.06;;;5.73;66.98
38452;BME280;24231;52.514;13.438;2023-03-04T09:07:36;101081.15;;;5.84;66.68
38452;BME280;24231;52.514;13.438;2023-03-04T09:10:04;101081.85;;;5.85;65.78
38452;BME280;24231;52.514;13.438;2023-03-04T09:12:31;101080.45;;;6.17;64.58
38452;BME280;24231;52.514;13.438;2023-03-04T09:14:58;101086.22;;;6.20;64.05
38452;BME280;24231;52.514;13.438;2023-03-04T09:17:26;101087.42;;;5.97;64.70
38452;BME280;24231;52.514;13.438;2023-03-04T09:19:54;101089.40;;;5.92;64.84
38452;BME280;24231;52.514;13.438;2023-03-04T09:22:21;101089.58;;;5.27;66.74
38452;BME280;24231;52.514;13.438;2023-03-04T09:24:48;101091.65;;;5.83;65.16
38452;BME280;24231;52.514;13.438;2023-03-04T09:27:16;101089.91;;;5.76;65.50
38452;BME280;24231;52.514;13.438;2023-03-04T09:29:43;101099.45;;;6.18;63.68
38452;BME280;24231;52.514;13.438;2023-03-04T09:32:11;101095.57;;;6.45;62.62
38452;BME280;24231;52.514;13.438;2023-03-04T09:34:38;101095.06;;;6.60;62.12
38452;BME280;24231;52.514;13.438;2023-03-04T09:37:06;101104.09;;;6.61;62.30
38452;BME280;24231;52.514;13.438;2023-03-04T09:39:33;101104.85;;;5.75;65.61
38452;BME280;24231;52.514;13.438;2023-03-04T09:42:01;101102.52;;;5.44;65.63
38452;BME280;24231;52.514;13.438;2023-03-04T09:44:32;101109.15;;;5.27;66.95
38452;BME280;24231;52.514;13.438;2023-03-04T09:47:02;101107.09;;;6.26;63.50
38452;BME280;24231;52.514;13.438;2023-03-04T09:49:30;101107.74;;;5.77;64.63
38452;BME280;24231;52.514;13.438;2023-03-04T09:52:02;101093.61;;;5.96;63.41
38452;BME280;24231;52.514;13.438;2023-03-04T09:54:40;101101.73;;;5.20;65.98
38452;BME280;24231;52.514;13.438;2023-03-04T09:57:22;101107.29;;;5.82;64.96
38452;BME280;24231;52.514;13.438;2023-03-04T09:59:56;101105.32;;;6.29;62.38
38452;BME280;24231;52.514;13.438;2023-03-04T10:02:38;101104.94;;;5.88;63.06
38452;BME280;24231;52.514;13.438;2023-03-04T10:05:14;101104.98;;;6.03;63.24
38452;BME280;24231;52.514;13.438;2023-03-04T10:07:45;101107.51;;;5.97;63.19
38452;BME280;24231;52.514;13.438;2023-03-04T10:10:19;101103.74;;;6.26;61.77
38452;BME280;24231;52.514;13.438;2023-03-04T10:12:49;101106.76;;;5.53;63.49
38452;BME280;24231;52.514;13.438;2023-03-04T10:15:22;101099.65;;;5.99;61.87
38452;BME280;24231;52.514;13.438;2023-03-04T10:17:58;101095.29;;;6.44;61.57
38452;BME280;24231;52.514;13.438;2023-03-04T10:20:32;101096.19;;;6.35;61.75
38452;BME280;24231;52.514;13.438;2023-03-04T10:23:09;101097.55;;;6.92;59.64
38452;BME280;24231;52.514;13.438;2023-03-04T10:25:43;101094.20;;;7.28;57.89
38452;BME280;24231;52.514;13.438;2023-03-04T10:28:14;101092.42;;;7.12;58.36
38452;BME280;24231;52.514;13.438;2023-03-04T10:30:48;101084.77;;;7.38;56.83
38452;BME280;24231;52.514;13.438;2023-03-04T10:33:19;101094.30;;;6.14;60.04
38452;BME280;24231;52.514;13.438;2023-03-04T10:35:49;101093.48;;;6.42;59.47
38452;BME280;24231;52.514;13.438;2023-03-04T10:38:20;101090.80;;;6.78;57.77
38452;BME280;24231;52.514;13.438;2023-03-04T10:40:48;101080.83;;;6.90;58.40
38452;BME280;24231;52.514;13.438;2023-03-04T10:43:16;101088.32;;;6.20;60.40
38452;BME280;24231;52.514;13.438;2023-03-04T10:45:45;101092.59;;;6.00;60.37
38452;BME280;24231;52.514;13.438;2023-03-04T10:48:19;101085.25;;;6.75;58.45
38452;BME280;24231;52.514;13.438;2023-03-04T10:50:46;101083.52;;;6.36;58.24
38452;BME280;24231;52.514;13.438;2023-03-04T10:53:27;101092.44;;;5.96;59.20
38452;BME280;24231;52.514;13.438;2023-03-04T10:55:56;101092.55;;;5.94;58.17
38452;BME280;24231;52.514;13.438;2023-03-04T10:58:23;101086.68;;;6.91;55.14
38452;BME280;24231;52.514;13.438;2023-03-04T11:01:00;101092.76;;;6.12;57.30
38452;BME280;24231;52.514;13.438;2023-03-04T11:03:31;101097.18;;;6.40;56.07
38452;BME280;24231;52.514;13.438;2023-03-04T11:06:17;101092.25;;;5.90;57.93
38452;BME280;24231;52.514;13.438;2023-03-04T11:08:54;101094.17;;;6.20;55.62
38452;BME280;24231;52.514;13.438;2023-03-04T11:11:24;101100.98;;;6.81;53.81
38452;BME280;24231;52.514;13.438;2023-03-04T11:13:55;101101.14;;;6.33;55.59
38452;BME280;24231;52.514;13.438;2023-03-04T11:16:25;101106.71;;;6.50;55.31
38452;BME280;24231;52.514;13.438;2023-03-04T11:18:55;101109.99;;;6.29;56.17
38452;BME280;24231;52.514;13.438;2023-03-04T11:21:28;101099.13;;;6.67;55.12
38452;BME280;24231;52.514;13.438;2023-03-04T11:23:57;101099.72;;;6.98;54.58
38452;BME280;24231;52.514;13.438;2023-03-04T11:26:29;101095.17;;;7.66;52.87
38452;BME280;24231;52.514;13.438;2023-03-04T11:29:01;101097.38;;;7.42;53.10
38452;BME280;24231;52.514;13.438;2023-03-04T11:31:33;101104.95;;;6.73;54.65
38452;BME280;24231;52.514;13.438;2023-03-04T11:34:07;101107.58;;;7.30;53.32
38452;BME280;24231;52.514;13.438;2023-03-04T11:36:50;101112.05;;;7.13;54.42
38452;BME280;24231;52.514;13.438;2023-03-04T11:39:23;101106.04;;;7.33;52.65
38452;BME280;24231;52.514;13.438;2023-03-04T11:41:57;101102.40;;;8.04;51.34
38452;BME280;24231;52.514;13.438;2023-03-04T11:44:27;101106.88;;;7.89;50.70
38452;BME280;24231;52.514;13.438;2023-03-04T11:47:05;101101.72;;;8.59;48.69
38452;BME280;24231;52.514;13.438;2023-03-04T11:50:10;101103.63;;;8.10;49.26
38452;BME280;24231;52.514;13.438;2023-03-04T11:52:55;101095.47;;;6.90;52.39
38452;BME280;24231;52.514;13.438;2023-03-04T11:55:34;101100.76;;;6.49;52.21
38452;BME280;24231;52.514;13.438;2023-03-04T11:58:19;101102.50;;;6.55;52.22
38452;BME280;24231;52.514;13.438;2023-03-04T12:00:54;101104.85;;;6.61;51.82
38452;BME280;24231;52.514;13.438;2023-03-04T12:03:43;101104.51;;;6.47;52.18
38452;BME280;24231;52.514;13.438;2023-03-04T12:06:24;101107.62;;;6.21;53.24
38452;BME280;24231;52.514;13.438;2023-03-04T12:09:03;101108.00;;;6.61;52.47
38452;BME280;24231;52.514;13.438;2023-03-04T12:11:42;101113.75;;;6.52;52.20
38452;BME280;24231;52.514;13.438;2023-03-04T12:14:22;101100.11;;;6.99;50.40
38452;BME280;24231;52.514;13.438;2023-03-04T12:17:03;101109.21;;;5.92;52.98
38452;BME280;24231;52.514;13.438;2023-03-04T12:19:46;101107.27;;;6.78;51.04
38452;BME280;24231;52.514;13.438;2023-03-04T12:22:28;101095.79;;;7.29;49.16
38452;BME280;24231;52.514;13.438;2023-03-04T12:25:23;101096.47;;;6.92;49.83
38452;BME280;24231;52.514;13.438;2023-03-04T12:27:57;101111.39;;;6.29;51.49
38452;BME280;24231;52.514;13.438;2023-03-04T12:30:37;101100.76;;;6.41;50.70
38452;BME280;24231;52.514;13.438;2023-03-04T12:33:14;101100.32;;;6.35;50.59
38452;BME280;24231;52.514;13.438;2023-03-04T12:35:52;101096.31;;;5.96;51.47
38452;BME280;24231;52.514;13.438;2023-03-04T12:38:33;101094.64;;;6.79;50.19
38452;BME280;24231;52.514;13.438;2023-03-04T12:41:17;101092.79;;;6.52;50.08
38452;BME280;24231;52.514;13.438;2023-03-04T12:43:53;101091.38;;;6.56;49.88
38452;BME280;24231;52.514;13.438;2023-03-04T12:46:35;101099.46;;;6.49;49.93
38452;BME280;24231;52.514;13.438;2023-03-04T12:49:24;101105.31;;;6.26;50.31
38452;BME280;24231;52.514;13.438;2023-03-04T12:51:59;101104.30;;;7.37;47.50
38452;BME280;24231;52.514;13.438;2023-03-04T12:54:31;101102.40;;;7.70;46.32
38452;BME280;24231;52.514;13.438;2023-03-04T12:57:02;101103.95;;;6.90;48.06
38452;BME280;24231;52.514;13.438;2023-03-04T12:59:35;101098.35;;;6.91;47.45
38452;BME280;24231;52.514;13.438;2023-03-04T13:02:23;101093.63;;;6.46;48.03
38452;BME280;24231;52.514;13.438;2023-03-04T13:04:58;101100.23;;;6.06;48.52